Hammondville, Alabama
Current Conditions -  °F | °C
As of 9:55 AM on Monday 24 Nov 2014 (Local Time) from K4A9 Reporting Station
Scattered Clouds Scattered Clouds  
Wind Chill: 63°   Ceiling: Unl
Heat Index: 63°   Visibility: 10mi
Dew Point: 50°   Wind: 17mph
Humidity: 63%   Direction: 260°W
Pressure: 29.79"   Gusts: 30mph
Location:  34.5704°N, 85.6428°W
Report Text: K4A9 241555Z AUTO 26015G26KT 10SM SCT029 SCT041 17/10 A2979 RMK AO2
Loading
Personal Weather Stations






























Interactive Weather Map New forecast layout! Learn more

10-Day Weather Forecast

Advertisements
Track Severe Weather on mobile